Time;durP1;ratioP1;P1;durP2;ratioP2;P2;SDS_P1;SDS_P2;PMS_P1;PMS_P2;Temp;Humidity;BMP_temperature;BMP_pressure;BME280_temperature;BME280_humidity;BME280_pressure;Samples;Min_cycle;Max_cycle;Signal;HPM_P1;HPM_P2
2022/02/28 00:01:51;;;;;;;;;;;;;;;6.64;59.56;100890.94;4290478;33;20033;-85
2022/02/28 00:04:18;;;;;;;;;;;;;;;6.44;59.55;100891.75;4303505;33;19984;-85
2022/02/28 00:06:43;;;;;;;;;;;;;;;6.59;59.57;100882.28;4303646;33;20031;-87
2022/02/28 00:09:09;;;;;;;;;;;;;;;6.49;59.55;100877.97;4290685;33;20488;-85
2022/02/28 00:11:34;;;;;;;;;;;;;;;6.52;59.56;100878.84;4303876;33;19999;-86
2022/02/28 00:13:59;;;;;;;;;;;;;;;6.60;59.56;100871.94;4290320;33;20463;-87
2022/02/28 00:16:25;;;;;;;;;;;;;;;6.72;59.56;100863.34;4289778;33;22759;-87
2022/02/28 00:18:50;;;;;;;;;;;;;;;6.83;59.57;100866.81;4303337;33;19992;-85
2022/02/28 00:21:15;;;;;;;;;;;;;;;7.04;59.58;100858.19;4290053;33;20020;-87
2022/02/28 00:23:40;;;;;;;;;;;;;;;6.77;59.57;100866.81;4290007;33;20020;-87
2022/02/28 00:26:06;;;;;;;;;;;;;;;6.67;59.57;100860.75;4290294;33;20019;-83
2022/02/28 00:28:31;;;;;;;;;;;;;;;6.71;59.56;100862.50;4303679;33;19988;-83
2022/02/28 00:30:56;;;;;;;;;;;;;;;6.76;59.56;100858.19;4303318;33;19996;-83
2022/02/28 00:33:24;;;;;;;;;;;;;;;6.95;59.58;100863.38;4303097;33;19999;-84
2022/02/28 00:35:49;;;;;;;;;;;;;;;6.97;59.58;100856.47;4301921;33;19976;-84
2022/02/28 00:38:15;;;;;;;;;;;;;;;7.25;59.60;100860.78;4303440;33;20403;-84
2022/02/28 00:40:40;;;;;;;;;;;;;;;7.09;59.59;100852.12;4303464;33;20111;-82
2022/02/28 00:43:06;;;;;;;;;;;;;;;6.99;59.58;100855.59;4290285;33;20008;-83
2022/02/28 00:45:31;;;;;;;;;;;;;;;7.00;59.58;100853.87;4303356;33;20041;-83
2022/02/28 00:47:56;;;;;;;;;;;;;;;7.13;59.58;100850.44;4290110;33;20025;-83
2022/02/28 00:50:21;;;;;;;;;;;;;;;7.15;59.59;100856.47;4302095;33;20000;-83
2022/02/28 00:52:46;;;;;;;;;;;;;;;7.07;59.58;100853.00;4289698;33;22164;-85
2022/02/28 00:55:12;;;;;;;;;;;;;;;7.03;59.59;100852.16;4288907;33;20271;-83
2022/02/28 00:57:37;;;;;;;;;;;;;;;7.12;59.59;100847.84;4279077;33;779905;-83
2022/02/28 01:00:03;;;;;;;;;;;;;;;6.98;59.58;100853.87;4289891;33;20000;-84
2022/02/28 01:02:29;;;;;;;;;;;;;;;6.92;59.57;100859.06;4303453;33;20028;-84
2022/02/28 01:04:54;;;;;;;;;;;;;;;6.88;59.58;100852.16;4303134;33;20007;-84
2022/02/28 01:07:19;;;;;;;;;;;;;;;7.00;59.58;100849.56;4303328;33;19996;-84
2022/02/28 01:09:44;;;;;;;;;;;;;;;7.11;59.59;100849.59;4303360;33;19976;-84
2022/02/28 01:12:10;;;;;;;;;;;;;;;6.97;59.58;100849.56;4302879;33;26192;-85
2022/02/28 01:14:35;;;;;;;;;;;;;;;7.11;59.59;100847.00;4289662;33;19992;-84
2022/02/28 01:17:00;;;;;;;;;;;;;;;7.09;59.59;100839.19;4290193;33;20757;-85
2022/02/28 01:19:26;;;;;;;;;;;;;;;7.06;59.58;100844.38;4290563;33;20020;-85
2022/02/28 01:21:51;;;;;;;;;;;;;;;7.08;59.58;100842.66;4290356;33;20042;-84
2022/02/28 01:24:16;;;;;;;;;;;;;;;7.04;59.59;100832.31;4289700;33;20003;-86
2022/02/28 01:26:42;;;;;;;;;;;;;;;7.05;59.59;100834.03;4289913;33;20001;-82
2022/02/28 01:29:07;;;;;;;;;;;;;;;7.20;59.59;100836.63;4289709;33;20000;-84
2022/02/28 01:31:32;;;;;;;;;;;;;;;7.15;59.58;100837.50;4289887;33;20016;-82
2022/02/28 01:33:58;;;;;;;;;;;;;;;6.99;59.58;100836.63;4303226;33;20417;-83
2022/02/28 01:36:23;;;;;;;;;;;;;;;7.14;59.58;100835.78;4289637;33;20004;-83
2022/02/28 01:38:48;;;;;;;;;;;;;;;6.61;59.56;100839.16;4289829;33;19980;-84
2022/02/28 01:41:13;;;;;;;;;;;;;;;6.77;59.56;100834.03;4303162;33;20000;-83
2022/02/28 01:43:39;;;;;;;;;;;;;;;6.62;59.55;100833.13;4302936;33;19972;-84
2022/02/28 01:46:04;;;;;;;;;;;;;;;6.89;59.57;100828.00;4303156;33;20008;-86
2022/02/28 01:48:29;;;;;;;;;;;;;;;6.84;59.57;100828.84;4302783;33;20011;-85
2022/02/28 01:50:55;;;;;;;;;;;;;;;6.81;59.57;100823.69;4302397;33;22196;-83
2022/02/28 01:53:20;;;;;;;;;;;;;;;6.96;59.58;100828.88;4289692;33;19976;-85
2022/02/28 01:55:45;;;;;;;;;;;;;;;6.84;59.57;100821.09;4289589;33;20407;-86
2022/02/28 01:58:10;;;;;;;;;;;;;;;6.71;59.56;100817.66;4289535;33;20463;-86
2022/02/28 02:00:36;;;;;;;;;;;;;;;6.55;59.55;100818.47;4289655;33;20023;-86
2022/02/28 02:03:02;;;;;;;;;;;;;;;6.90;59.57;100816.78;4289518;33;20008;-86
2022/02/28 02:05:28;;;;;;;;;;;;;;;6.81;59.57;100811.59;4302642;33;19985;-85
2022/02/28 02:07:53;;;;;;;;;;;;;;;6.76;59.56;100810.75;4289382;33;20043;-85
2022/02/28 02:10:18;;;;;;;;;;;;;;;6.65;59.56;100813.34;4302086;33;31734;-85
2022/02/28 02:12:43;;;;;;;;;;;;;;;6.68;59.57;100804.72;4288824;33;27695;-85
2022/02/28 02:15:10;;;;;;;;;;;;;;;6.70;59.56;100805.56;4302657;33;19985;-86
2022/02/28 02:17:36;;;;;;;;;;;;;;;6.68;59.56;100809.87;4289461;33;19991;-85
2022/02/28 02:20:03;;;;;;;;;;;;;;;6.66;59.57;100809.03;4289414;33;19981;-87
2022/02/28 02:22:28;;;;;;;;;;;;;;;6.75;59.57;100796.94;4289489;33;20032;-86
2022/02/28 02:24:53;;;;;;;;;;;;;;;6.67;59.57;100795.22;4302578;33;20004;-84
2022/02/28 02:27:18;;;;;;;;;;;;;;;6.58;59.56;100796.06;4289184;33;19984;-84
2022/02/28 02:29:43;;;;;;;;;;;;;;;6.72;59.57;100786.59;4289070;33;27098;-85
2022/02/28 02:32:09;;;;;;;;;;;;;;;6.80;59.57;100794.34;4302719;33;19973;-86
2022/02/28 02:34:34;;;;;;;;;;;;;;;6.90;59.58;100788.31;4301026;33;20012;-84
2022/02/28 02:37:00;;;;;;;;;;;;;;;6.98;59.58;100781.41;4289143;33;20363;-86
2022/02/28 02:39:25;;;;;;;;;;;;;;;6.95;59.58;100790.91;4288849;33;20288;-86
2022/02/28 02:41:50;;;;;;;;;;;;;;;6.81;59.57;100777.97;4288758;33;19996;-86
2022/02/28 02:44:15;;;;;;;;;;;;;;;6.91;59.57;100781.41;4301859;33;30737;-86
2022/02/28 02:46:47;;;;;;;;;;;;;;;6.53;59.55;100773.66;4288999;33;19988;-84
2022/02/28 02:49:14;;;;;;;;;;;;;;;6.83;59.57;100778.81;4288973;33;20348;-84
2022/02/28 02:51:39;;;;;;;;;;;;;;;6.90;59.58;100770.22;4289131;33;20979;-84
2022/02/28 02:54:04;;;;;;;;;;;;;;;6.91;59.57;100771.94;4301073;33;19996;-84
2022/02/28 02:56:30;;;;;;;;;;;;;;;7.02;59.58;100767.59;4301774;33;22710;-86
2022/02/28 02:58:55;;;;;;;;;;;;;;;6.91;59.57;100768.47;4289086;33;20027;-86
2022/02/28 03:01:20;;;;;;;;;;;;;;;6.70;59.56;100757.28;4302467;33;19987;-85
2022/02/28 03:03:45;;;;;;;;;;;;;;;6.65;59.57;100761.59;4301693;33;24156;-85
2022/02/28 03:06:11;;;;;;;;;;;;;;;6.81;59.57;100764.16;4302378;33;20001;-85
2022/02/28 03:08:36;;;;;;;;;;;;;;;6.62;59.56;100768.47;4288963;33;20423;-85
2022/02/28 03:11:01;;;;;;;;;;;;;;;6.68;59.56;100760.72;4289079;33;20007;-85
2022/02/28 03:13:26;;;;;;;;;;;;;;;6.52;59.55;100762.44;4288879;33;20011;-85
2022/02/28 03:15:52;;;;;;;;;;;;;;;6.43;59.55;100758.13;4302079;33;19991;-84
2022/02/28 03:18:18;;;;;;;;;;;;;;;6.51;59.56;100758.13;4302902;33;20000;-84
2022/02/28 03:20:43;;;;;;;;;;;;;;;6.65;59.57;100760.72;4304207;33;19995;-84
2022/02/28 03:23:08;;;;;;;;;;;;;;;6.55;59.55;100759.84;4304354;33;19984;-84
2022/02/28 03:25:33;;;;;;;;;;;;;;;6.53;59.55;100755.53;4290990;33;20076;-84
2022/02/28 03:27:59;;;;;;;;;;;;;;;6.61;59.56;100758.97;4303060;33;20032;-84
2022/02/28 03:30:24;;;;;;;;;;;;;;;6.41;59.54;100754.69;4304171;33;19989;-84
2022/02/28 03:32:49;;;;;;;;;;;;;;;6.32;59.54;100757.22;4304326;33;20007;-84
2022/02/28 03:35:14;;;;;;;;;;;;;;;6.29;59.54;100753.78;4290298;33;19996;-85
2022/02/28 03:37:40;;;;;;;;;;;;;;;6.18;59.53;100747.75;4290629;33;20004;-84
2022/02/28 03:40:06;;;;;;;;;;;;;;;6.19;59.53;100752.06;4290017;33;29684;-83
2022/02/28 03:42:31;;;;;;;;;;;;;;;6.08;59.53;100744.25;4304228;33;20036;-84
2022/02/28 03:44:56;;;;;;;;;;;;;;;6.07;59.53;100742.53;4304116;33;20032;-83
2022/02/28 03:47:22;;;;;;;;;;;;;;;6.06;59.53;100740.81;4303885;33;20000;-84
2022/02/28 03:49:47;;;;;;;;;;;;;;;6.06;59.53;100736.50;4302584;33;19985;-84
2022/02/28 03:52:12;;;;;;;;;;;;;;;5.97;59.52;100736.50;4304001;33;20730;-83
2022/02/28 03:54:37;;;;;;;;;;;;;;;6.16;59.54;100740.00;4302704;33;20057;-83
2022/02/28 03:57:03;;;;;;;;;;;;;;;6.28;59.54;100741.72;4303441;33;30232;-84
2022/02/28 03:59:28;;;;;;;;;;;;;;;6.32;59.54;100739.13;4304198;33;20036;-84
2022/02/28 04:01:53;;;;;;;;;;;;;;;6.46;59.55;100740.03;4303450;33;25646;-84
2022/02/28 04:04:19;;;;;;;;;;;;;;;6.45;59.55;100732.25;4290078;33;22163;-85
2022/02/28 04:06:48;;;;;;;;;;;;;;;6.41;59.54;100738.31;4304047;33;19995;-85
2022/02/28 04:09:13;;;;;;;;;;;;;;;6.55;59.56;100736.56;4304052;33;20295;-84
2022/02/28 04:11:39;;;;;;;;;;;;;;;6.58;59.56;100733.09;4290661;33;20027;-84
2022/02/28 04:14:04;;;;;;;;;;;;;;;6.49;59.55;100738.28;4304000;33;20064;-84
2022/02/28 04:16:29;;;;;;;;;;;;;;;6.63;59.56;100741.75;4303696;33;20008;-82
2022/02/28 04:18:54;;;;;;;;;;;;;;;6.46;59.55;100746.91;4290577;33;20307;-84
2022/02/28 04:21:20;;;;;;;;;;;;;;;6.17;59.54;100743.44;4290542;33;20023;-83
2022/02/28 04:23:46;;;;;;;;;;;;;;;6.25;59.54;100739.13;4303375;33;22156;-83
2022/02/28 04:26:11;;;;;;;;;;;;;;;6.12;59.53;100741.69;4303791;33;20036;-83
2022/02/28 04:28:36;;;;;;;;;;;;;;;6.11;59.52;100737.38;4303207;33;23960;-84
2022/02/28 04:31:01;;;;;;;;;;;;;;;6.01;59.52;100732.19;4301987;33;24295;-84
2022/02/28 04:33:26;;;;;;;;;;;;;;;6.11;59.52;100737.38;4303479;33;19969;-83
2022/02/28 04:35:52;;;;;;;;;;;;;;;6.26;59.53;100733.09;4301547;33;19981;-83
2022/02/28 04:38:18;;;;;;;;;;;;;;;6.24;59.53;100725.34;4290402;33;19984;-83
2022/02/28 04:40:44;;;;;;;;;;;;;;;6.22;59.54;100726.22;4290472;33;20452;-82
2022/02/28 04:43:09;;;;;;;;;;;;;;;6.24;59.53;100727.06;4303639;33;20020;-83
2022/02/28 04:45:34;;;;;;;;;;;;;;;6.07;59.53;100732.19;4289797;33;31602;-82
2022/02/28 04:47:59;;;;;;;;;;;;;;;6.02;59.52;100726.16;4290647;33;19996;-83
2022/02/28 04:50:24;;;;;;;;;;;;;;;6.16;59.53;100729.66;4303529;33;21083;-84
2022/02/28 04:52:50;;;;;;;;;;;;;;;6.20;59.54;100727.94;4302512;33;20004;-81
2022/02/28 04:55:15;;;;;;;;;;;;;;;6.15;59.54;100731.38;4303869;33;20028;-83
2022/02/28 04:57:41;;;;;;;;;;;;;;;6.15;59.53;100736.56;4303947;33;19999;-86
2022/02/28 05:00:06;;;;;;;;;;;;;;;6.01;59.52;100734.78;4290525;33;20039;-84
2022/02/28 05:02:32;;;;;;;;;;;;;;;6.13;59.53;100729.63;4290557;33;19996;-84
2022/02/28 05:04:57;;;;;;;;;;;;;;;6.07;59.53;100732.19;4303754;33;19988;-84
2022/02/28 05:07:22;;;;;;;;;;;;;;;6.27;59.54;100735.69;4290495;33;20032;-83
2022/02/28 05:09:47;;;;;;;;;;;;;;;6.19;59.53;100734.81;4303665;33;20330;-83
2022/02/28 05:12:13;;;;;;;;;;;;;;;6.04;59.52;100738.22;4303758;33;20373;-84
2022/02/28 05:14:38;;;;;;;;;;;;;;;6.19;59.53;100745.16;4303586;33;19985;-83
2022/02/28 05:17:03;;;;;;;;;;;;;;;6.11;59.52;100749.44;4303726;33;20036;-84
2022/02/28 05:19:29;;;;;;;;;;;;;;;6.02;59.52;100764.94;4303748;33;19977;-83
2022/02/28 05:21:54;;;;;;;;;;;;;;;5.97;59.52;100761.47;4302317;33;19992;-84
2022/02/28 05:24:20;;;;;;;;;;;;;;;5.91;59.53;100751.09;4290467;33;20024;-83
2022/02/28 05:26:45;;;;;;;;;;;;;;;5.64;59.51;100760.44;4290385;33;20346;-81
2022/02/28 05:29:10;;;;;;;;;;;;;;;5.59;59.50;100772.50;4302391;33;20028;-83
2022/02/28 05:31:35;;;;;;;;;;;;;;;5.60;59.49;100775.94;4290083;33;20577;-87
2022/02/28 05:34:01;;;;;;;;;;;;;;;5.57;59.50;100769.03;4289468;33;26883;-87
2022/02/28 05:36:26;;;;;;;;;;;;;;;5.54;59.50;100772.47;4289877;33;20023;-84
2022/02/28 05:38:51;;;;;;;;;;;;;;;5.58;59.50;100781.09;4289929;33;19999;-84
2022/02/28 05:41:16;;;;;;;;;;;;;;;5.54;59.49;100780.22;4288862;33;25303;-88
2022/02/28 05:43:42;;;;;;;;;;;;;;;5.57;59.50;100776.78;4290190;33;20007;-87
2022/02/28 05:46:09;;;;;;;;;;;;;;;5.57;59.50;100789.69;4303665;33;19994;-87
2022/02/28 05:48:34;;;;;;;;;;;;;;;5.59;59.50;100784.53;4290301;33;20019;-88
2022/02/28 05:51:00;;;;;;;;;;;;;;;5.55;59.50;100781.09;4290068;33;20299;-87
2022/02/28 05:53:25;;;;;;;;;;;;;;;5.52;59.49;100788.81;4303395;33;20009;-88
2022/02/28 05:55:50;;;;;;;;;;;;;;;5.50;59.50;100783.66;4289548;33;19973;-89
2022/02/28 05:58:15;;;;;;;;;;;;;;;5.55;59.50;100791.41;4289801;33;20023;-90
2022/02/28 06:00:41;;;;;;;;;;;;;;;5.59;59.50;100793.16;4289866;33;20322;-89
2022/02/28 06:03:06;;;;;;;;;;;;;;;5.62;59.50;100782.84;4289925;33;20321;-88
2022/02/28 06:05:31;;;;;;;;;;;;;;;5.66;59.50;100791.47;4289382;33;22196;-89
2022/02/28 06:07:56;;;;;;;;;;;;;;;5.59;59.50;100798.31;4289841;33;19988;-89
2022/02/28 06:10:22;;;;;;;;;;;;;;;5.31;59.48;100801.59;4289449;33;20015;-87
2022/02/28 06:12:47;;;;;;;;;;;;;;;5.13;59.48;100807.50;4289807;33;19999;-88
2022/02/28 06:15:12;;;;;;;;;;;;;;;4.99;59.46;100822.03;4289639;33;19968;-88
2022/02/28 06:17:38;;;;;;;;;;;;;;;4.99;59.46;100822.91;4289756;33;20003;-88
2022/02/28 06:20:04;;;;;;;;;;;;;;;4.68;59.44;100823.47;4289758;33;20375;-88
2022/02/28 06:22:30;;;;;;;;;;;;;;;4.65;59.44;100828.59;4289760;33;19988;-88
2022/02/28 06:24:55;;;;;;;;;;;;;;;4.64;59.45;100817.44;4289674;33;19996;-87
2022/02/28 06:27:22;;;;;;;;;;;;;;;4.58;59.44;100825.12;4289349;33;19996;-87
2022/02/28 06:29:47;;;;;;;;;;;;;;;4.64;59.45;100817.44;4302871;33;20357;-87
2022/02/28 06:32:12;;;;;;;;;;;;;;;4.47;59.43;100817.25;4289091;33;19980;-86
2022/02/28 06:34:37;;;;;;;;;;;;;;;4.49;59.44;100822.44;4302472;33;19989;-85
2022/02/28 06:37:03;;;;;;;;;;;;;;;4.52;59.44;100807.88;4302532;33;20605;-86
2022/02/28 06:39:28;;;;;;;;;;;;;;;4.54;59.44;100810.47;4289039;33;20164;-87
2022/02/28 06:41:53;;;;;;;;;;;;;;;4.76;59.45;100801.22;4288850;33;19980;-86
2022/02/28 06:44:19;;;;;;;;;;;;;;;4.82;59.46;100806.41;4302420;33;19988;-87
2022/02/28 06:46:44;;;;;;;;;;;;;;;4.83;59.45;100798.69;4289177;33;20048;-87
2022/02/28 06:49:09;;;;;;;;;;;;;;;5.07;59.47;100803.19;4288680;33;20291;-87
2022/02/28 06:51:34;;;;;;;;;;;;;;;5.15;59.47;100801.50;4288916;33;20321;-87
2022/02/28 06:54:00;;;;;;;;;;;;;;;5.23;59.47;100809.31;4290251;33;19972;-88
2022/02/28 06:56:25;;;;;;;;;;;;;;;5.15;59.47;100798.91;4290522;33;19997;-87
2022/02/28 06:58:50;;;;;;;;;;;;;;;5.30;59.48;100794.72;4290883;33;20341;-86
2022/02/28 07:01:16;;;;;;;;;;;;;;;5.55;59.50;100801.75;4290741;33;20007;-87
2022/02/28 07:03:42;;;;;;;;;;;;;;;5.37;59.48;100791.31;4291044;33;19996;-86
2022/02/28 07:06:07;;;;;;;;;;;;;;;5.47;59.49;100793.97;4304170;33;19985;-88
2022/02/28 07:08:33;;;;;;;;;;;;;;;5.66;59.50;100794.91;4290894;33;20279;-86
2022/02/28 07:10:58;;;;;;;;;;;;;;;5.76;59.51;100804.44;4290656;33;19981;-85
2022/02/28 07:13:25;;;;;;;;;;;;;;;5.97;59.52;100808.00;4302753;33;20004;-87
2022/02/28 07:15:52;;;;;;;;;;;;;;;5.99;59.52;100798.53;4290758;33;20055;-88
2022/02/28 07:18:17;;;;;;;;;;;;;;;5.87;59.51;100801.88;4291264;33;19985;-87
2022/02/28 07:20:42;;;;;;;;;;;;;;;5.73;59.50;100803.56;4303640;33;24994;-87
2022/02/28 07:23:08;;;;;;;;;;;;;;;5.66;59.50;100805.22;4290819;33;20033;-86
2022/02/28 07:25:33;;;;;;;;;;;;;;;5.64;59.50;100809.53;4290871;33;20354;-86
2022/02/28 07:27:58;;;;;;;;;;;;;;;5.44;59.49;100814.62;4291219;33;20028;-87
2022/02/28 07:30:23;;;;;;;;;;;;;;;5.38;59.48;100811.97;4290599;33;19996;-87
2022/02/28 07:32:49;;;;;;;;;;;;;;;5.47;59.49;100818.94;4290755;33;20016;-87
2022/02/28 07:35:14;;;;;;;;;;;;;;;5.46;59.50;100832.69;4290586;33;20037;-86
2022/02/28 07:37:39;;;;;;;;;;;;;;;5.29;59.48;100829.13;4290543;33;20018;-87
2022/02/28 07:40:05;;;;;;;;;;;;;;;5.25;59.48;100823.09;4290411;33;20022;-87
2022/02/28 07:42:30;;;;;;;;;;;;;;;5.27;59.48;100828.25;4304031;33;20000;-87
2022/02/28 07:44:55;;;;;;;;;;;;;;;5.38;59.48;100836.94;4290701;33;20335;-87
2022/02/28 07:47:21;;;;;;;;;;;;;;;5.51;59.49;100812.91;4290568;33;20004;-87
2022/02/28 07:49:46;;;;;;;;;;;;;;;5.47;59.49;100818.94;4290739;33;20080;-87
2022/02/28 07:52:11;;;;;;;;;;;;;;;5.40;59.49;100819.72;4290610;33;19999;-87
2022/02/28 07:54:36;;;;;;;;;;;;;;;5.45;59.48;100806.00;4303376;33;29862;-86
2022/02/28 07:57:02;;;;;;;;;;;;;;;5.68;59.50;100807.81;4304038;33;19972;-86
2022/02/28 07:59:27;;;;;;;;;;;;;;;5.41;59.49;100814.56;4290383;33;20004;-86
2022/02/28 08:01:52;;;;;;;;;;;;;;;5.44;59.49;100808.56;4303629;33;19989;-84
2022/02/28 08:04:17;;;;;;;;;;;;;;;5.53;59.50;100813.78;4289856;33;26439;-88
2022/02/28 08:06:42;;;;;;;;;;;;;;;5.49;59.50;100801.72;4290598;33;20015;-87
2022/02/28 08:09:08;;;;;;;;;;;;;;;5.08;59.46;100812.63;4304009;33;19980;-86
2022/02/28 08:11:33;;;;;;;;;;;;;;;4.96;59.46;100819.41;4303858;33;20503;-86
2022/02/28 08:13:58;;;;;;;;;;;;;;;4.90;59.46;100810.78;4290419;33;20314;-85
2022/02/28 08:16:24;;;;;;;;;;;;;;;5.08;59.46;100810.06;4289449;33;31458;-86
2022/02/28 08:18:49;;;;;;;;;;;;;;;5.18;59.48;100813.56;4290506;33;20012;-86
2022/02/28 08:21:14;;;;;;;;;;;;;;;5.34;59.48;100806.78;4290031;33;20006;-85
2022/02/28 08:23:39;;;;;;;;;;;;;;;5.43;59.49;100817.16;4303768;33;20013;-86
2022/02/28 08:26:04;;;;;;;;;;;;;;;5.46;59.50;100822.38;4290356;33;19988;-86
2022/02/28 08:28:30;;;;;;;;;;;;;;;5.38;59.48;100813.69;4303680;33;19980;-87
2022/02/28 08:30:55;;;;;;;;;;;;;;;5.35;59.49;100830.03;4290566;33;19992;-87
2022/02/28 08:33:20;;;;;;;;;;;;;;;5.36;59.48;100816.25;4303197;33;27170;-87
2022/02/28 08:35:45;;;;;;;;;;;;;;;5.35;59.48;100819.69;4290428;33;19996;-87
2022/02/28 08:38:11;;;;;;;;;;;;;;;5.56;59.50;100831.88;4303423;33;19984;-87
2022/02/28 08:40:36;;;;;;;;;;;;;;;5.53;59.50;100821.53;4303757;33;20057;-87
2022/02/28 08:43:02;;;;;;;;;;;;;;;5.62;59.50;100820.72;4290333;33;20004;-87
2022/02/28 08:45:27;;;;;;;;;;;;;;;5.76;59.50;100821.66;4303693;33;19981;-87
2022/02/28 08:47:52;;;;;;;;;;;;;;;5.72;59.50;100831.13;4303565;33;19992;-86
2022/02/28 08:50:18;;;;;;;;;;;;;;;5.76;59.51;100830.28;4290458;33;20303;-88
2022/02/28 08:52:43;;;;;;;;;;;;;;;5.64;59.50;100819.00;4290301;33;20000;-87
2022/02/28 08:55:09;;;;;;;;;;;;;;;5.71;59.51;100829.38;4290315;33;20033;-88
2022/02/28 08:57:34;;;;;;;;;;;;;;;5.95;59.52;100835.56;4290280;33;19977;-87
2022/02/28 08:59:59;;;;;;;;;;;;;;;6.18;59.53;100830.47;4303624;33;19976;-87
2022/02/28 09:02:25;;;;;;;;;;;;;;;6.09;59.53;100829.56;4303563;33;20016;-86
2022/02/28 09:04:50;;;;;;;;;;;;;;;6.09;59.53;100829.56;4290315;33;20052;-87
2022/02/28 09:07:15;;;;;;;;;;;;;;;6.00;59.52;100837.31;4290151;33;19994;-87
2022/02/28 09:09:40;;;;;;;;;;;;;;;6.24;59.53;100833.94;4303579;33;19988;-88
2022/02/28 09:12:06;;;;;;;;;;;;;;;6.46;59.55;100832.28;4290110;33;19996;-86
2022/02/28 09:14:31;;;;;;;;;;;;;;;6.65;59.56;100833.16;4290233;33;19990;-88
2022/02/28 09:16:57;;;;;;;;;;;;;;;6.72;59.56;100824.53;4289312;33;20376;-87
2022/02/28 09:19:22;;;;;;;;;;;;;;;6.95;59.58;100830.59;4290145;33;19977;-87
2022/02/28 09:21:49;;;;;;;;;;;;;;;6.92;59.57;100829.72;4290181;33;20016;-86
2022/02/28 09:24:15;;;;;;;;;;;;;;;6.87;59.58;100832.31;4303565;33;20063;-86
2022/02/28 09:26:42;;;;;;;;;;;;;;;6.89;59.58;100833.19;4303561;33;20357;-88
2022/02/28 09:29:07;;;;;;;;;;;;;;;6.98;59.58;100845.25;4290359;33;20354;-87
2022/02/28 09:31:33;;;;;;;;;;;;;;;6.84;59.57;100829.72;4290131;33;20020;-88
2022/02/28 09:33:58;;;;;;;;;;;;;;;6.71;59.56;100840.94;4290146;33;19992;-87
2022/02/28 09:36:23;;;;;;;;;;;;;;;6.62;59.55;100843.47;4303438;33;19992;-88
2022/02/28 09:38:48;;;;;;;;;;;;;;;6.34;59.54;100851.19;4290033;33;19964;-87
2022/02/28 09:41:13;;;;;;;;;;;;;;;6.50;59.55;100838.31;4289284;33;32180;-88
2022/02/28 09:43:39;;;;;;;;;;;;;;;6.68;59.56;100846.09;4303038;33;20947;-87
2022/02/28 09:46:04;;;;;;;;;;;;;;;6.95;59.58;100850.44;4290066;33;20079;-86
2022/02/28 09:48:30;;;;;;;;;;;;;;;6.78;59.56;100845.25;4303271;33;19984;-87
2022/02/28 09:50:56;;;;;;;;;;;;;;;6.87;59.58;100865.97;4289928;33;20358;-88
2022/02/28 09:53:21;;;;;;;;;;;;;;;6.87;59.58;100853.03;4289500;33;20826;-87
2022/02/28 09:55:46;;;;;;;;;;;;;;;6.93;59.57;100860.78;4301831;33;20016;-87
2022/02/28 09:58:11;;;;;;;;;;;;;;;6.91;59.57;100859.94;4303140;33;19984;-87
2022/02/28 10:00:37;;;;;;;;;;;;;;;6.66;59.56;100865.94;4289808;33;20702;-88
2022/02/28 10:03:02;;;;;;;;;;;;;;;6.64;59.55;100875.44;4289941;33;20011;-89
2022/02/28 10:05:28;;;;;;;;;;;;;;;6.33;59.54;100864.13;4290134;33;20003;-87
2022/02/28 10:07:54;;;;;;;;;;;;;;;6.19;59.53;100871.84;4303271;33;20025;-88
2022/02/28 10:10:19;;;;;;;;;;;;;;;6.17;59.53;100870.97;4302918;33;19996;-87
2022/02/28 10:12:44;;;;;;;;;;;;;;;6.11;59.52;100882.13;4289838;33;19980;-88
2022/02/28 10:15:12;;;;;;;;;;;;;;;5.87;59.51;100880.25;4289528;33;19997;-87
2022/02/28 10:17:48;;;;;;;;;;;;;;;6.10;59.53;100867.47;4301744;33;19992;-88
2022/02/28 10:20:17;;;;;;;;;;;;;;;6.29;59.54;100876.19;4289744;33;20079;-88
2022/02/28 10:22:42;;;;;;;;;;;;;;;6.39;59.55;100870.19;4289724;33;19992;-87
2022/02/28 10:25:08;;;;;;;;;;;;;;;6.57;59.55;100865.91;4289535;33;20020;-87
2022/02/28 10:27:33;;;;;;;;;;;;;;;6.62;59.55;100859.00;4300926;33;22482;-88
2022/02/28 10:29:58;;;;;;;;;;;;;;;6.84;59.57;100872.84;4289235;33;20027;-87
2022/02/28 10:32:27;;;;;;;;;;;;;;;6.86;59.57;100861.66;4289682;33;19992;-87
2022/02/28 10:37:45;;;;;;;;;;;;;;;7.34;59.60;100847.84;4291467;33;20043;-86
2022/02/28 10:40:10;;;;;;;;;;;;;;;7.44;59.61;100850.41;4289055;33;19996;-88
2022/02/28 10:42:45;;;;;;;;;;;;;;;7.47;59.61;100859.03;4289376;33;20003;-87
2022/02/28 10:45:21;;;;;;;;;;;;;;;7.61;59.61;100853.84;4289407;33;19980;-88
2022/02/28 10:47:47;;;;;;;;;;;;;;;7.61;59.61;100864.19;4289559;33;20004;-88
2022/02/28 10:50:13;;;;;;;;;;;;;;;7.46;59.60;100856.44;4289499;33;20035;-89
2022/02/28 10:52:53;;;;;;;;;;;;;;;7.20;59.59;100885.81;4289404;33;19999;-87
2022/02/28 10:55:29;;;;;;;;;;;;;;;7.06;59.58;100875.44;4289186;33;20032;-87
2022/02/28 10:58:05;;;;;;;;;;;;;;;6.73;59.57;100868.53;4289233;33;19977;-89
2022/02/28 11:00:30;;;;;;;;;;;;;;;6.69;59.56;100891.81;4301054;33;19968;-87
2022/02/28 11:03:01;;;;;;;;;;;;;;;6.56;59.56;100882.28;4289258;33;20018;-87
2022/02/28 11:05:27;;;;;;;;;;;;;;;6.65;59.57;100879.75;4302559;33;20016;-89
2022/02/28 11:07:58;;;;;;;;;;;;;;;6.74;59.56;100880.59;4301155;33;19989;-89
2022/02/28 11:10:23;;;;;;;;;;;;;;;6.42;59.55;100893.47;4289794;33;20014;-87
2022/02/28 11:12:49;;;;;;;;;;;;;;;5.99;59.53;100896.75;4302339;33;20307;-87
2022/02/28 11:15:15;;;;;;;;;;;;;;;5.87;59.51;100893.19;4300909;33;20051;-88
2022/02/28 11:17:43;;;;;;;;;;;;;;;5.87;59.52;100892.31;4289346;33;20026;-87
2022/02/28 11:20:10;;;;;;;;;;;;;;;5.95;59.52;100882.06;4302533;33;19996;-89
2022/02/28 11:22:36;;;;;;;;;;;;;;;6.04;59.53;100895.03;4302631;33;20011;-87
2022/02/28 11:25:02;;;;;;;;;;;;;;;5.67;59.50;100887.03;4288901;33;19984;-87
2022/02/28 11:27:29;;;;;;;;;;;;;;;5.70;59.51;100887.06;4289728;33;19980;-87
2022/02/28 11:30:03;;;;;;;;;;;;;;;5.97;59.52;100888.13;4303354;33;19985;-87
2022/02/28 11:32:28;;;;;;;;;;;;;;;5.86;59.52;100898.34;4302720;33;19996;-88
2022/02/28 11:34:54;;;;;;;;;;;;;;;5.76;59.52;100897.44;4289289;33;20005;-88
2022/02/28 11:37:20;;;;;;;;;;;;;;;5.64;59.50;100905.09;4288918;33;19969;-87
2022/02/28 11:39:45;;;;;;;;;;;;;;;5.68;59.51;100904.28;4290018;33;19992;-88
2022/02/28 11:42:10;;;;;;;;;;;;;;;5.50;59.49;100904.16;4302379;33;25760;-88
2022/02/28 11:44:36;;;;;;;;;;;;;;;5.48;59.49;100909.31;4291067;33;20000;-88
2022/02/28 11:47:03;;;;;;;;;;;;;;;5.20;59.48;100922.84;4290859;33;19999;-88
2022/02/28 11:49:38;;;;;;;;;;;;;;;5.01;59.47;100924.41;4304346;33;20251;-88
2022/02/28 11:52:22;;;;;;;;;;;;;;;4.86;59.45;100924.25;4291164;33;19989;-88
2022/02/28 11:54:47;;;;;;;;;;;;;;;4.88;59.46;100932.88;4304213;33;19998;-87
2022/02/28 11:57:12;;;;;;;;;;;;;;;4.51;59.44;100937.66;4278753;33;19973;-88
2022/02/28 11:59:38;;;;;;;;;;;;;;;4.43;59.44;100939.25;4290560;33;20318;-89
2022/02/28 12:02:07;;;;;;;;;;;;;;;4.21;59.43;100944.97;4304070;33;20009;-89
2022/02/28 12:04:33;;;;;;;;;;;;;;;4.09;59.42;100947.41;4290808;33;19980;-89
2022/02/28 12:07:22;;;;;;;;;;;;;;;4.25;59.42;100933.88;4290927;33;20318;-88
2022/02/28 12:09:48;;;;;;;;;;;;;;;4.20;59.42;100938.09;4304157;33;20041;-87
2022/02/28 12:12:27;;;;;;;;;;;;;;;4.15;59.42;100945.78;4290770;33;19992;-88
2022/02/28 12:15:04;;;;;;;;;;;;;;;3.93;59.40;100948.91;4290652;33;20354;-88
2022/02/28 12:17:32;;;;;;;;;;;;;;;4.11;59.41;100951.75;4304252;33;20036;-88
2022/02/28 12:20:13;;;;;;;;;;;;;;;4.12;59.42;100950.03;4302834;33;20511;-88
2022/02/28 12:22:50;;;;;;;;;;;;;;;4.28;59.43;100945.09;4302661;33;20010;-88
2022/02/28 12:25:34;;;;;;;;;;;;;;;4.25;59.41;100946.75;4302910;33;20052;-89
2022/02/28 12:28:20;;;;;;;;;;;;;;;4.23;59.42;100936.44;4304163;33;19980;-89
2022/02/28 12:30:51;;;;;;;;;;;;;;;4.43;59.44;100944.41;4297541;33;20621;-90
2022/02/28 12:33:17;;;;;;;;;;;;;;;4.25;59.42;100936.44;4291210;33;20090;-90
2022/02/28 12:35:49;;;;;;;;;;;;;;;4.14;59.42;100938.91;4291030;33;19980;-89
2022/02/28 12:38:14;;;;;;;;;;;;;;;4.11;59.41;100932.84;4303026;33;19989;-89
2022/02/28 12:40:46;;;;;;;;;;;;;;;4.27;59.43;100939.94;4290802;33;20389;-88
2022/02/28 12:43:14;;;;;;;;;;;;;;;4.39;59.42;100928.87;4290900;33;19996;-89
2022/02/28 12:45:40;;;;;;;;;;;;;;;4.35;59.43;100920.25;4290946;33;19989;-90